sensor_id;sensor_type;location;lat;lon;timestamp;pressure;altitude;pressure_sealevel;temperature;humidity
74573;BME280;73017;50.810;4.428;2023-10-19T00:00:56;98700.13;;;21.24;55.53
74573;BME280;73017;50.810;4.428;2023-10-19T00:03:23;98682.84;;;21.12;54.92
74573;BME280;73017;50.810;4.428;2023-10-19T00:05:50;98676.03;;;21.11;55.45
74573;BME280;73017;50.810;4.428;2023-10-19T00:08:16;98690.28;;;21.20;55.40
74573;BME280;73017;50.810;4.428;2023-10-19T00:10:53;98668.06;;;21.11;54.78
74573;BME280;73017;50.810;4.428;2023-10-19T00:13:30;98667.66;;;21.12;55.13
74573;BME280;73017;50.810;4.428;2023-10-19T00:15:56;98675.28;;;21.10;54.84
74573;BME280;73017;50.810;4.428;2023-10-19T00:18:25;98690.28;;;21.20;54.99
74573;BME280;73017;50.810;4.428;2023-10-19T00:20:52;98701.19;;;21.26;55.15
74573;BME280;73017;50.810;4.428;2023-10-19T00:23:23;98699.25;;;21.30;55.24
74573;BME280;73017;50.810;4.428;2023-10-19T00:25:56;98676.38;;;21.13;54.77
74573;BME280;73017;50.810;4.428;2023-10-19T00:28:23;98679.44;;;21.11;55.44
74573;BME280;73017;50.810;4.428;2023-10-19T00:30:51;98660.91;;;21.08;54.98
74573;BME280;73017;50.810;4.428;2023-10-19T00:33:18;98677.47;;;21.15;55.39
74573;BME280;73017;50.810;4.428;2023-10-19T00:35:46;98675.97;;;21.14;55.17
74573;BME280;73017;50.810;4.428;2023-10-19T00:38:30;98697.06;;;21.25;54.82
74573;BME280;73017;50.810;4.428;2023-10-19T00:41:09;98694.06;;;21.23;55.29
74573;BME280;73017;50.810;4.428;2023-10-19T00:43:36;98670.31;;;21.12;55.36
74573;BME280;73017;50.810;4.428;2023-10-19T00:46:11;98674.88;;;21.12;55.07
74573;BME280;73017;50.810;4.428;2023-10-19T00:51:26;98675.56;;;21.16;55.07
74573;BME280;73017;50.810;4.428;2023-10-19T00:54:09;98693.97;;;21.27;55.01
74573;BME280;73017;50.810;4.428;2023-10-19T00:56:43;98683.81;;;21.21;55.08
74573;BME280;73017;50.810;4.428;2023-10-19T00:59:17;98674.88;;;21.12;55.04
74573;BME280;73017;50.810;4.428;2023-10-19T01:01:51;98682.44;;;21.13;55.06
74573;BME280;73017;50.810;4.428;2023-10-19T01:04:20;98677.13;;;21.13;54.89
74573;BME280;73017;50.810;4.428;2023-10-19T01:06:49;98698.50;;;21.30;55.30
74573;BME280;73017;50.810;4.428;2023-10-19T01:09:43;98679.41;;;21.15;55.34
74573;BME280;73017;50.810;4.428;2023-10-19T01:12:10;98700.75;;;21.31;55.19
74573;BME280;73017;50.810;4.428;2023-10-19T01:15:18;98702.25;;;21.32;55.05
74573;BME280;73017;50.810;4.428;2023-10-19T01:17:54;98709.31;;;21.19;55.09
74573;BME280;73017;50.810;4.428;2023-10-19T01:20:27;98709.06;;;21.33;54.96
74573;BME280;73017;50.810;4.428;2023-10-19T01:28:37;98710.59;;;21.31;55.43
74573;BME280;73017;50.810;4.428;2023-10-19T01:31:07;98709.53;;;21.28;55.10
74573;BME280;73017;50.810;4.428;2023-10-19T01:33:33;98678.63;;;21.14;55.44
74573;BME280;73017;50.810;4.428;2023-10-19T01:36:01;98683.19;;;21.14;54.65
74573;BME280;73017;50.810;4.428;2023-10-19T01:38:45;98698.53;;;21.26;55.32
74573;BME280;73017;50.810;4.428;2023-10-19T01:41:13;98670.31;;;21.12;54.76
74573;BME280;73017;50.810;4.428;2023-10-19T01:43:40;98685.41;;;21.19;54.88
74573;BME280;73017;50.810;4.428;2023-10-19T01:46:07;98682.44;;;21.13;54.82
74573;BME280;73017;50.810;4.428;2023-10-19T01:48:42;98713.97;;;21.35;54.91
74573;BME280;73017;50.810;4.428;2023-10-19T01:51:10;98697.41;;;21.27;55.02
74573;BME280;73017;50.810;4.428;2023-10-19T01:53:37;98694.41;;;21.25;55.03
74573;BME280;73017;50.810;4.428;2023-10-19T01:56:13;98674.06;;;21.15;55.00
74573;BME280;73017;50.810;4.428;2023-10-19T01:58:41;98679.41;;;21.15;55.16
74573;BME280;73017;50.810;4.428;2023-10-19T02:01:08;98704.91;;;21.32;55.09
74573;BME280;73017;50.810;4.428;2023-10-19T02:03:43;98663.56;;;21.08;54.97
74573;BME280;73017;50.810;4.428;2023-10-19T02:06:10;98704.91;;;21.32;54.84
74573;BME280;73017;50.810;4.428;2023-10-19T02:08:48;98686.13;;;21.19;55.20
74573;BME280;73017;50.810;4.428;2023-10-19T02:11:19;98707.56;;;21.32;55.04
74573;BME280;73017;50.810;4.428;2023-10-19T02:13:46;98698.34;;;21.37;55.18
74573;BME280;73017;50.810;4.428;2023-10-19T02:16:16;98666.03;;;21.18;55.23
74573;BME280;73017;50.810;4.428;2023-10-19T02:18:45;98661.53;;;21.15;55.26
74573;BME280;73017;50.810;4.428;2023-10-19T02:21:10;98684.47;;;21.29;54.58
74573;BME280;73017;50.810;4.428;2023-10-19T02:23:38;98649.47;;;21.11;55.01
74573;BME280;73017;50.810;4.428;2023-10-19T02:26:05;98666.84;;;21.15;55.18
74573;BME280;73017;50.810;4.428;2023-10-19T02:28:31;98684.81;;;21.31;55.28
74573;BME280;73017;50.810;4.428;2023-10-19T02:30:59;98650.91;;;21.15;55.19
74573;BME280;73017;50.810;4.428;2023-10-19T02:33:37;98666.78;;;21.19;54.80
74573;BME280;73017;50.810;4.428;2023-10-19T02:36:03;98682.91;;;21.32;55.07
74573;BME280;73017;50.810;4.428;2023-10-19T02:38:29;98684.38;;;21.33;54.96
74573;BME280;73017;50.810;4.428;2023-10-19T02:40:55;98666.66;;;21.26;54.90
74573;BME280;73017;50.810;4.428;2023-10-19T02:43:21;98656.53;;;21.21;55.24
74573;BME280;73017;50.810;4.428;2023-10-19T02:45:49;98639.25;;;21.09;54.82
74573;BME280;73017;50.810;4.428;2023-10-19T02:48:14;98663.94;;;21.30;55.46
74573;BME280;73017;50.810;4.428;2023-10-19T02:50:41;98662.38;;;21.32;55.36
74573;BME280;73017;50.810;4.428;2023-10-19T02:53:06;98658.63;;;21.30;54.92
74573;BME280;73017;50.810;4.428;2023-10-19T02:55:32;98656.72;;;21.30;54.93
74573;BME280;73017;50.810;4.428;2023-10-19T02:57:57;98648.75;;;21.30;55.42
74573;BME280;73017;50.810;4.428;2023-10-19T03:00:24;98655.59;;;21.31;55.35
74573;BME280;73017;50.810;4.428;2023-10-19T03:02:59;98647.53;;;21.35;55.03
74573;BME280;73017;50.810;4.428;2023-10-19T03:05:26;98649.91;;;21.29;55.44
74573;BME280;73017;50.810;4.428;2023-10-19T03:07:51;98620.94;;;21.15;55.48
74573;BME280;73017;50.810;4.428;2023-10-19T03:10:18;98644.88;;;21.35;55.32
74573;BME280;73017;50.810;4.428;2023-10-19T03:12:59;98630.41;;;21.16;54.87
74573;BME280;73017;50.810;4.428;2023-10-19T03:15:24;98635.94;;;21.25;54.99
74573;BME280;73017;50.810;4.428;2023-10-19T03:17:50;98637.78;;;21.28;55.66
74573;BME280;73017;50.810;4.428;2023-10-19T03:20:16;98632.88;;;21.27;55.63
74573;BME280;73017;50.810;4.428;2023-10-19T03:22:49;98633.97;;;21.29;55.22
74573;BME280;73017;50.810;4.428;2023-10-19T03:25:15;98646.09;;;21.30;55.02
74573;BME280;73017;50.810;4.428;2023-10-19T03:28:00;98643.03;;;21.32;55.70
74573;BME280;73017;50.810;4.428;2023-10-19T03:30:33;98620.94;;;21.15;54.82
74573;BME280;73017;50.810;4.428;2023-10-19T03:33:00;98623.19;;;21.16;54.76
74573;BME280;73017;50.810;4.428;2023-10-19T03:35:26;98646.44;;;21.32;55.10
74573;BME280;73017;50.810;4.428;2023-10-19T03:37:52;98643.03;;;21.32;55.11
74573;BME280;73017;50.810;4.428;2023-10-19T03:40:17;98640.78;;;21.30;55.04
74573;BME280;73017;50.810;4.428;2023-10-19T03:42:52;98626.19;;;21.18;55.25
74573;BME280;73017;50.810;4.428;2023-10-19T03:45:20;98635.81;;;21.32;54.87
74573;BME280;73017;50.810;4.428;2023-10-19T03:47:49;98621.16;;;21.24;55.53
74573;BME280;73017;50.810;4.428;2023-10-19T03:50:15;98619.38;;;21.17;54.75
74573;BME280;73017;50.810;4.428;2023-10-19T03:52:45;98644.53;;;21.33;55.45
74573;BME280;73017;50.810;4.428;2023-10-19T03:55:11;98632.41;;;21.32;55.10
74573;BME280;73017;50.810;4.428;2023-10-19T03:57:37;98618.56;;;21.20;54.96
74573;BME280;73017;50.810;4.428;2023-10-19T04:00:08;98635.81;;;21.32;55.56
74573;BME280;73017;50.810;4.428;2023-10-19T04:02:41;98641.13;;;21.32;55.68
74573;BME280;73017;50.810;4.428;2023-10-19T04:05:10;98612.50;;;21.20;55.56
74573;BME280;73017;50.810;4.428;2023-10-19T04:07:41;98644.88;;;21.35;55.22
74573;BME280;73017;50.810;4.428;2023-10-19T04:10:09;98638.13;;;21.30;54.86
74573;BME280;73017;50.810;4.428;2023-10-19T04:12:39;98619.38;;;21.17;55.24
74573;BME280;73017;50.810;4.428;2023-10-19T04:15:08;98616.38;;;21.15;54.93
74573;BME280;73017;50.810;4.428;2023-10-19T04:17:37;98621.28;;;21.17;55.26
74573;BME280;73017;50.810;4.428;2023-10-19T04:20:09;98627.28;;;21.21;54.79
74573;BME280;73017;50.810;4.428;2023-10-19T04:22:52;98624.28;;;21.19;55.56
74573;BME280;73017;50.810;4.428;2023-10-19T04:25:19;98656.28;;;21.35;55.02
74573;BME280;73017;50.810;4.428;2023-10-19T04:27:46;98639.28;;;21.29;55.51
74573;BME280;73017;50.810;4.428;2023-10-19T04:30:13;98649.78;;;21.36;55.37
74573;BME280;73017;50.810;4.428;2023-10-19T04:32:46;98644.47;;;21.36;54.99
74573;BME280;73017;50.810;4.428;2023-10-19T04:35:12;98614.81;;;21.18;55.28
74573;BME280;73017;50.810;4.428;2023-10-19T04:37:40;98642.97;;;21.35;55.20
74573;BME280;73017;50.810;4.428;2023-10-19T04:40:10;98620.47;;;21.20;54.83
74573;BME280;73017;50.810;4.428;2023-10-19T04:42:37;98595.25;;;21.08;55.54
74573;BME280;73017;50.810;4.428;2023-10-19T04:45:03;98640.31;;;21.35;55.41
74573;BME280;73017;50.810;4.428;2023-10-19T04:47:30;98614.81;;;21.18;55.37
74573;BME280;73017;50.810;4.428;2023-10-19T04:49:56;98610.25;;;21.18;55.46
74573;BME280;73017;50.810;4.428;2023-10-19T04:52:21;98633.84;;;21.36;55.51
74573;BME280;73017;50.810;4.428;2023-10-19T04:54:47;98645.16;;;21.40;54.99
74573;BME280;73017;50.810;4.428;2023-10-19T04:57:12;98627.50;;;21.30;54.90
74573;BME280;73017;50.810;4.428;2023-10-19T04:59:38;98629.81;;;21.28;55.01
74573;BME280;73017;50.810;4.428;2023-10-19T05:02:03;98638.75;;;21.38;55.40
74573;BME280;73017;50.810;4.428;2023-10-19T05:04:30;98617.69;;;21.27;55.28
74573;BME280;73017;50.810;4.428;2023-10-19T05:06:56;98634.31;;;21.31;55.53
74573;BME280;73017;50.810;4.428;2023-10-19T05:09:22;98612.16;;;21.18;55.28
74573;BME280;73017;50.810;4.428;2023-10-19T05:11:47;98626.81;;;21.26;55.05
74573;BME280;73017;50.810;4.428;2023-10-19T05:14:13;98637.25;;;21.37;55.04
74573;BME280;73017;50.810;4.428;2023-10-19T05:16:42;98611.69;;;21.23;55.05
74573;BME280;73017;50.810;4.428;2023-10-19T05:19:07;98610.19;;;21.22;55.63
74573;BME280;73017;50.810;4.428;2023-10-19T05:21:33;98600.28;;;21.23;55.20
74573;BME280;73017;50.810;4.428;2023-10-19T05:23:59;98630.72;;;21.41;55.63
74573;BME280;73017;50.810;4.428;2023-10-19T05:26:28;98598.81;;;21.21;55.09
74573;BME280;73017;50.810;4.428;2023-10-19T05:28:53;98605.59;;;21.23;55.03
74573;BME280;73017;50.810;4.428;2023-10-19T05:31:20;98609.72;;;21.27;55.16
74573;BME280;73017;50.810;4.428;2023-10-19T05:33:45;98624.28;;;21.39;55.08
74573;BME280;73017;50.810;4.428;2023-10-19T05:36:14;98606.72;;;21.25;55.29
74573;BME280;73017;50.810;4.428;2023-10-19T05:38:40;98559.88;;;20.91;55.28
74573;BME280;73017;50.810;4.428;2023-10-19T05:41:05;98607.47;;;21.26;54.91
74573;BME280;73017;50.810;4.428;2023-10-19T05:43:33;98613.19;;;21.24;55.40
74573;BME280;73017;50.810;4.428;2023-10-19T05:46:00;98633.09;;;21.36;55.43
74573;BME280;73017;50.810;4.428;2023-10-19T05:48:25;98599.22;;;21.20;55.01
74573;BME280;73017;50.810;4.428;2023-10-19T05:50:51;98600.25;;;21.26;55.48
74573;BME280;73017;50.810;4.428;2023-10-19T05:53:16;98597.28;;;21.20;55.18
74573;BME280;73017;50.810;4.428;2023-10-19T05:55:50;98630.38;;;21.39;54.83
74573;BME280;73017;50.810;4.428;2023-10-19T05:58:15;98613.47;;;21.30;55.18
74573;BME280;73017;50.810;4.428;2023-10-19T06:00:41;98633.44;;;21.38;55.33
74573;BME280;73017;50.810;4.428;2023-10-19T06:03:07;98636.03;;;21.41;55.28
74573;BME280;73017;50.810;4.428;2023-10-19T06:05:33;98640.22;;;21.43;54.98
74573;BME280;73017;50.810;4.428;2023-10-19T06:07:59;98635.69;;;21.39;55.28
74573;BME280;73017;50.810;4.428;2023-10-19T06:10:28;98618.44;;;21.28;55.34
74573;BME280;73017;50.810;4.428;2023-10-19T06:12:54;98618.84;;;21.26;54.89
74573;BME280;73017;50.810;4.428;2023-10-19T06:15:22;98607.13;;;21.24;55.04
74573;BME280;73017;50.810;4.428;2023-10-19T06:17:51;98612.44;;;21.24;55.48
74573;BME280;73017;50.810;4.428;2023-10-19T06:20:18;98618.50;;;21.24;55.35
74573;BME280;73017;50.810;4.428;2023-10-19T06:22:51;98623.06;;;21.24;54.91
74573;BME280;73017;50.810;4.428;2023-10-19T06:25:18;98624.56;;;21.25;55.23
74573;BME280;73017;50.810;4.428;2023-10-19T06:27:45;98650.47;;;21.40;54.99
74573;BME280;73017;50.810;4.428;2023-10-19T06:30:12;98649.31;;;21.41;54.91
74573;BME280;73017;50.810;4.428;2023-10-19T06:32:44;98613.59;;;21.23;54.85
74573;BME280;73017;50.810;4.428;2023-10-19T06:35:09;98641.34;;;21.41;55.15
74573;BME280;73017;50.810;4.428;2023-10-19T06:37:36;98625.91;;;21.33;54.89
74573;BME280;73017;50.810;4.428;2023-10-19T06:40:02;98635.69;;;21.39;55.47
74573;BME280;73017;50.810;4.428;2023-10-19T06:42:27;98647.78;;;21.44;55.17
74573;BME280;73017;50.810;4.428;2023-10-19T06:44:53;98642.88;;;21.43;55.54
74573;BME280;73017;50.810;4.428;2023-10-19T06:47:21;98650.03;;;21.46;54.80
74573;BME280;73017;50.810;4.428;2023-10-19T06:49:48;98614.34;;;21.23;54.98
74573;BME280;73017;50.810;4.428;2023-10-19T06:52:13;98634.13;;;21.42;55.14
74573;BME280;73017;50.810;4.428;2023-10-19T06:54:41;98617.09;;;21.39;55.57
74573;BME280;73017;50.810;4.428;2023-10-19T06:57:07;98629.22;;;21.40;55.15
74573;BME280;73017;50.810;4.428;2023-10-19T06:59:35;98628.13;;;21.38;55.36
74573;BME280;73017;50.810;4.428;2023-10-19T07:02:02;98612.03;;;21.25;55.67
74573;BME280;73017;50.810;4.428;2023-10-19T07:04:30;98610.06;;;21.29;54.79
74573;BME280;73017;50.810;4.428;2023-10-19T07:06:56;98607.75;;;21.31;55.26
74573;BME280;73017;50.810;4.428;2023-10-19T07:09:22;98600.97;;;21.27;55.22
74573;BME280;73017;50.810;4.428;2023-10-19T07:11:49;98592.66;;;21.25;55.45
74573;BME280;73017;50.810;4.428;2023-10-19T07:14:19;98590.78;;;21.25;55.16
74573;BME280;73017;50.810;4.428;2023-10-19T07:16:44;98615.16;;;21.44;55.22
74573;BME280;73017;50.810;4.428;2023-10-19T07:19:10;98617.03;;;21.43;54.94
74573;BME280;73017;50.810;4.428;2023-10-19T07:21:35;98595.59;;;21.30;55.02
74573;BME280;73017;50.810;4.428;2023-10-19T07:24:03;98615.16;;;21.44;55.08
74573;BME280;73017;50.810;4.428;2023-10-19T07:26:34;98614.75;;;21.45;55.20
74573;BME280;73017;50.810;4.428;2023-10-19T07:29:06;98615.09;;;21.47;54.92
74573;BME280;73017;50.810;4.428;2023-10-19T07:31:35;98611.34;;;21.41;55.32
74573;BME280;73017;50.810;4.428;2023-10-19T07:34:01;98615.50;;;21.42;55.59
74573;BME280;73017;50.810;4.428;2023-10-19T07:36:26;98613.56;;;21.46;55.23
74573;BME280;73017;50.810;4.428;2023-10-19T07:38:54;98612.09;;;21.45;55.03
74573;BME280;73017;50.810;4.428;2023-10-19T07:41:20;98584.25;;;21.30;55.65
74573;BME280;73017;50.810;4.428;2023-10-19T07:43:46;98604.50;;;21.44;55.71
74573;BME280;73017;50.810;4.428;2023-10-19T07:46:12;98599.56;;;21.42;55.63
74573;BME280;73017;50.810;4.428;2023-10-19T07:48:37;98578.94;;;21.30;55.92
74573;BME280;73017;50.810;4.428;2023-10-19T07:51:04;98596.13;;;21.45;55.59
74573;BME280;73017;50.810;4.428;2023-10-19T07:53:29;98604.84;;;21.46;55.83
74573;BME280;73017;50.810;4.428;2023-10-19T07:55:55;98564.56;;;21.27;56.07
74573;BME280;73017;50.810;4.428;2023-10-19T07:58:22;98584.75;;;21.45;55.43
74573;BME280;73017;50.810;4.428;2023-10-19T08:00:48;98590.41;;;21.47;55.56
74573;BME280;73017;50.810;4.428;2023-10-19T08:03:14;98590.81;;;21.45;55.68
74573;BME280;73017;50.810;4.428;2023-10-19T08:05:41;98594.50;;;21.51;55.88
74573;BME280;73017;50.810;4.428;2023-10-19T08:08:07;98589.59;;;21.50;56.04
74573;BME280;73017;50.810;4.428;2023-10-19T08:10:34;98588.00;;;21.52;56.00
74573;BME280;73017;50.810;4.428;2023-10-19T08:13:00;98559.94;;;21.31;56.08
74573;BME280;73017;50.810;4.428;2023-10-19T08:15:27;98584.75;;;21.45;56.44
74573;BME280;73017;50.810;4.428;2023-10-19T08:17:55;98558.81;;;21.29;56.27
74573;BME280;73017;50.810;4.428;2023-10-19T08:20:21;98552.00;;;21.28;55.91
74573;BME280;73017;50.810;4.428;2023-10-19T08:22:56;98573.31;;;21.48;56.27
74573;BME280;73017;50.810;4.428;2023-10-19T08:25:23;98542.75;;;21.36;55.95
74573;BME280;73017;50.810;4.428;2023-10-19T08:27:49;98563.41;;;21.48;55.73
74573;BME280;73017;50.810;4.428;2023-10-19T08:30:17;98561.50;;;21.49;55.77
74573;BME280;73017;50.810;4.428;2023-10-19T08:32:44;98527.94;;;21.35;55.52
74573;BME280;73017;50.810;4.428;2023-10-19T08:35:14;98511.06;;;21.25;56.19
74573;BME280;73017;50.810;4.428;2023-10-19T08:37:40;98512.09;;;21.31;55.95
74573;BME280;73017;50.810;4.428;2023-10-19T08:40:10;98542.41;;;21.54;55.30
74573;BME280;73017;50.810;4.428;2023-10-19T08:42:44;98508.88;;;21.40;56.06
74573;BME280;73017;50.810;4.428;2023-10-19T08:45:16;98532.53;;;21.54;55.49
74573;BME280;73017;50.810;4.428;2023-10-19T08:50:14;98526.19;;;21.48;55.64
74573;BME280;73017;50.810;4.428;2023-10-19T08:52:41;98530.72;;;21.51;55.55
74573;BME280;73017;50.810;4.428;2023-10-19T08:55:08;98520.81;;;21.52;55.44
74573;BME280;73017;50.810;4.428;2023-10-19T08:57:36;98515.56;;;21.48;55.95
74573;BME280;73017;50.810;4.428;2023-10-19T09:00:03;98513.44;;;21.39;55.95
74573;BME280;73017;50.810;4.428;2023-10-19T09:02:32;98495.72;;;21.33;55.85
74573;BME280;73017;50.810;4.428;2023-10-19T09:04:58;98533.28;;;21.55;55.74
74573;BME280;73017;50.810;4.428;2023-10-19T09:07:25;98525.94;;;21.43;55.37
74573;BME280;73017;50.810;4.428;2023-10-19T09:09:56;98547.81;;;21.50;55.82
74573;BME280;73017;50.810;4.428;2023-10-19T09:12:22;98561.72;;;21.58;55.28
74573;BME280;73017;50.810;4.428;2023-10-19T09:14:48;98517.25;;;21.38;55.90
74573;BME280;73017;50.810;4.428;2023-10-19T09:17:15;98547.75;;;21.54;55.58
74573;BME280;73017;50.810;4.428;2023-10-19T09:19:45;98519.50;;;21.40;55.70
74573;BME280;73017;50.810;4.428;2023-10-19T09:22:14;98547.34;;;21.55;55.54
74573;BME280;73017;50.810;4.428;2023-10-19T09:24:49;98532.41;;;21.41;55.51
74573;BME280;73017;50.810;4.428;2023-10-19T09:27:19;98540.38;;;21.41;55.68
74573;BME280;73017;50.810;4.428;2023-10-19T09:29:45;98549.44;;;21.44;55.32
74573;BME280;73017;50.810;4.428;2023-10-19T09:32:10;98559.94;;;21.51;55.79
74573;BME280;73017;50.810;4.428;2023-10-19T09:34:39;98555.31;;;21.55;55.70
74573;BME280;73017;50.810;4.428;2023-10-19T09:37:09;98528.63;;;21.39;55.93
74573;BME280;73017;50.810;4.428;2023-10-19T09:39:35;98529.34;;;21.43;55.86
74573;BME280;73017;50.810;4.428;2023-10-19T09:42:11;98474.50;;;21.13;55.52
74573;BME280;73017;50.810;4.428;2023-10-19T09:44:54;98542.25;;;21.61;55.72
74573;BME280;73017;50.810;4.428;2023-10-19T09:47:30;98528.72;;;21.55;55.30
74573;BME280;73017;50.810;4.428;2023-10-19T09:49:58;98499.50;;;21.35;55.22
74573;BME280;73017;50.810;4.428;2023-10-19T09:52:23;98535.47;;;21.60;55.01
74573;BME280;73017;50.810;4.428;2023-10-19T09:55:14;98539.19;;;21.63;54.93
74573;BME280;73017;50.810;4.428;2023-10-19T09:57:50;98530.41;;;21.66;55.66
74573;BME280;73017;50.810;4.428;2023-10-19T10:00:17;98528.91;;;21.65;55.75
74573;BME280;73017;50.810;4.428;2023-10-19T10:02:50;98497.03;;;21.45;55.02
74573;BME280;73017;50.810;4.428;2023-10-19T10:10:47;98532.31;;;21.65;55.08
74573;BME280;73017;50.810;4.428;2023-10-19T10:15:54;98522.84;;;21.64;55.40
74573;BME280;73017;50.810;4.428;2023-10-19T10:18:23;98495.38;;;21.51;55.17
74573;BME280;73017;50.810;4.428;2023-10-19T10:21:08;98519.22;;;21.74;55.20
74573;BME280;73017;50.810;4.428;2023-10-19T10:23:44;98515.81;;;21.74;55.15
74573;BME280;73017;50.810;4.428;2023-10-19T10:26:14;98516.56;;;21.74;54.90
74573;BME280;73017;50.810;4.428;2023-10-19T10:28:41;98505.16;;;21.74;55.35
74573;BME280;73017;50.810;4.428;2023-10-19T10:31:11;98516.03;;;21.79;55.25
74573;BME280;73017;50.810;4.428;2023-10-19T10:33:42;98498.94;;;21.80;54.96
74573;BME280;73017;50.810;4.428;2023-10-19T10:36:10;98431.22;;;21.32;54.47
74573;BME280;73017;50.810;4.428;2023-10-19T10:38:36;98494.28;;;21.85;54.84
74573;BME280;73017;50.810;4.428;2023-10-19T10:41:03;98494.38;;;21.81;55.10
74573;BME280;73017;50.810;4.428;2023-10-19T10:43:29;98473.81;;;21.65;54.84
74573;BME280;73017;50.810;4.428;2023-10-19T10:46:05;98491.28;;;21.83;54.86
74573;BME280;73017;50.810;4.428;2023-10-19T10:48:32;98456.72;;;21.66;54.45
74573;BME280;73017;50.810;4.428;2023-10-19T10:50:58;98420.25;;;21.30;54.64
74573;BME280;73017;50.810;4.428;2023-10-19T10:53:24;98490.47;;;21.86;54.56
74573;BME280;73017;50.810;4.428;2023-10-19T10:55:53;98424.94;;;21.43;54.28
74573;BME280;73017;50.810;4.428;2023-10-19T10:58:18;98498.78;;;21.88;54.82
74573;BME280;73017;50.810;4.428;2023-10-19T11:00:46;98483.41;;;21.79;54.71
74573;BME280;73017;50.810;4.428;2023-10-19T11:03:19;98491.91;;;21.90;54.50
74573;BME280;73017;50.810;4.428;2023-10-19T11:05:47;98485.13;;;21.86;54.50
74573;BME280;73017;50.810;4.428;2023-10-19T11:08:14;98475.34;;;21.83;54.62
74573;BME280;73017;50.810;4.428;2023-10-19T11:10:46;98440.09;;;21.62;54.89
74573;BME280;73017;50.810;4.428;2023-10-19T11:13:16;98439.84;;;21.73;54.36
74573;BME280;73017;50.810;4.428;2023-10-19T11:15:53;98419.00;;;21.71;54.60
74573;BME280;73017;50.810;4.428;2023-10-19T11:18:38;98432.88;;;21.79;54.20
74573;BME280;73017;50.810;4.428;2023-10-19T11:21:12;98445.94;;;21.90;54.68
74573;BME280;73017;50.810;4.428;2023-10-19T11:23:43;98449.25;;;21.94;54.72
74573;BME280;73017;50.810;4.428;2023-10-19T11:26:11;98441.28;;;21.94;54.63
74573;BME280;73017;50.810;4.428;2023-10-19T11:28:38;98446.28;;;21.92;54.51
74573;BME280;73017;50.810;4.428;2023-10-19T11:31:22;98449.59;;;21.96;54.51
74573;BME280;73017;50.810;4.428;2023-10-19T11:33:50;98424.56;;;21.77;54.03
74573;BME280;73017;50.810;4.428;2023-10-19T11:36:17;98429.41;;;21.82;54.59
74573;BME280;73017;50.810;4.428;2023-10-19T11:38:45;98443.09;;;21.97;54.20
74573;BME280;73017;50.810;4.428;2023-10-19T11:41:15;98435.44;;;21.99;54.48
74573;BME280;73017;50.810;4.428;2023-10-19T11:43:43;98399.97;;;21.73;53.97
74573;BME280;73017;50.810;4.428;2023-10-19T11:46:10;98429.47;;;21.95;54.38
74573;BME280;73017;50.810;4.428;2023-10-19T11:48:38;98400.16;;;21.82;53.97
74573;BME280;73017;50.810;4.428;2023-10-19T11:51:06;98427.13;;;21.97;54.26
74573;BME280;73017;50.810;4.428;2023-10-19T11:53:35;98435.78;;;22.01;53.88
74573;BME280;73017;50.810;4.428;2023-10-19T11:56:03;98433.97;;;21.98;54.25
74573;BME280;73017;50.810;4.428;2023-10-19T11:58:33;98404.88;;;21.74;54.02
74573;BME280;73017;50.810;4.428;2023-10-19T12:01:10;98443.75;;;22.01;54.17
74573;BME280;73017;50.810;4.428;2023-10-19T12:03:40;98443.75;;;22.01;54.45
74573;BME280;73017;50.810;4.428;2023-10-19T12:06:10;98429.31;;;22.02;53.88
74573;BME280;73017;50.810;4.428;2023-10-19T12:08:36;98433.97;;;21.98;54.17
74573;BME280;73017;50.810;4.428;2023-10-19T12:11:03;98372.31;;;21.54;54.13
74573;BME280;73017;50.810;4.428;2023-10-19T12:13:30;98419.44;;;21.86;53.91
74573;BME280;73017;50.810;4.428;2023-10-19T12:15:57;98434.78;;;21.95;54.37
74573;BME280;73017;50.810;4.428;2023-10-19T12:18:24;98428.53;;;22.01;54.28
74573;BME280;73017;50.810;4.428;2023-10-19T12:20:52;98409.25;;;21.97;54.07
74573;BME280;73017;50.810;4.428;2023-10-19T12:23:22;98384.53;;;21.84;54.01
74573;BME280;73017;50.810;4.428;2023-10-19T12:25:48;98372.78;;;21.81;54.37
74573;BME280;73017;50.810;4.428;2023-10-19T12:28:14;98383.44;;;21.98;53.90
74573;BME280;73017;50.810;4.428;2023-10-19T12:30:43;98379.59;;;21.99;54.19
74573;BME280;73017;50.810;4.428;2023-10-19T12:33:10;98395.88;;;22.01;54.41
74573;BME280;73017;50.810;4.428;2023-10-19T12:35:41;98380.13;;;21.94;54.15
74573;BME280;73017;50.810;4.428;2023-10-19T12:38:25;98373.78;;;22.04;54.02
74573;BME280;73017;50.810;4.428;2023-10-19T12:40:51;98373.34;;;22.06;54.25
74573;BME280;73017;50.810;4.428;2023-10-19T12:43:18;98357.75;;;21.91;53.79
74573;BME280;73017;50.810;4.428;2023-10-19T12:45:50;98374.78;;;22.10;54.01
74573;BME280;73017;50.810;4.428;2023-10-19T12:48:19;98343.28;;;21.92;54.04
74573;BME280;73017;50.810;4.428;2023-10-19T12:50:46;98336.38;;;21.95;53.57
74573;BME280;73017;50.810;4.428;2023-10-19T12:53:11;98343.66;;;22.07;53.56
74573;BME280;73017;50.810;4.428;2023-10-19T12:55:37;98337.19;;;22.08;54.08
74573;BME280;73017;50.810;4.428;2023-10-19T12:58:04;98323.41;;;21.97;53.91
74573;BME280;73017;50.810;4.428;2023-10-19T13:00:35;98336.66;;;22.13;53.84
74573;BME280;73017;50.810;4.428;2023-10-19T13:03:10;98303.31;;;21.96;53.44
74573;BME280;73017;50.810;4.428;2023-10-19T13:05:40;98309.69;;;21.98;53.66
74573;BME280;73017;50.810;4.428;2023-10-19T13:08:07;98322.63;;;22.13;53.96
74573;BME280;73017;50.810;4.428;2023-10-19T13:10:35;98292.25;;;21.97;53.79
74573;BME280;73017;50.810;4.428;2023-10-19T13:13:07;98272.56;;;21.95;53.54
74573;BME280;73017;50.810;4.428;2023-10-19T13:15:34;98281.72;;;21.94;53.43
74573;BME280;73017;50.810;4.428;2023-10-19T13:18:05;98302.41;;;22.15;53.45
74573;BME280;73017;50.810;4.428;2023-10-19T13:20:36;98269.16;;;21.94;54.02
74573;BME280;73017;50.810;4.428;2023-10-19T13:23:02;98295.94;;;22.16;53.56
74573;BME280;73017;50.810;4.428;2023-10-19T13:25:33;98292.94;;;22.14;53.79
74573;BME280;73017;50.810;4.428;2023-10-19T13:28:09;98300.50;;;22.16;53.26